EST,Max TemperatureF,Mean TemperatureF,Min TemperatureF,Max Dew PointF,MeanDew PointF,Min DewpointF,Max Humidity, Mean Humidity, Min Humidity, Max Sea Level PressureIn, Mean Sea Level PressureIn, Min Sea Level PressureIn, Max VisibilityMiles, Mean VisibilityMiles, Min VisibilityMiles, Max Wind SpeedMPH, Mean Wind SpeedMPH, Max Gust SpeedMPH,PrecipitationIn, CloudCover, Events, WindDirDegrees
2013-2-1,12,8,3,6,1,-3,79,70,59,30.36,30.23,30.00,10,8,2,24,17,32,0.00,5,Snow,238
2013-2-2,25,20,15,20,14,7,93,80,70,30.24,30.04,29.93,10,4,0,16,11,23,0.00,8,Fog-Snow,227
2013-2-3,21,16,12,16,11,7,86,78,68,30.07,29.98,29.92,10,5,1,23,8,26,0.00,8,Snow,256
2013-2-4,25,21,17,20,17,10,93,84,73,30.06,29.93,29.83,10,4,0,12,7,,0.14,8,Fog-Snow,106
2013-2-5,30,18,6,27,19,3,93,85,69,30.02,29.89,29.80,7,2,0,15,5,,0.01,6,Fog-Snow,218
2013-2-6,32,25,18,21,19,15,88,72,56,30.28,30.21,30.06,10,8,2,10,7,,0.00,3,,161
2013-2-7,41,34,27,31,26,20,89,75,57,30.22,29.99,29.78,7,4,2,13,8,,0.09,4,Rain,106
2013-2-8,34,28,21,32,25,16,93,78,64,30.37,30.09,29.78,10,7,1,21,11,28,0.00,7,,330
2013-2-9,34,24,15,22,17,9,93,78,59,30.44,30.36,30.21,10,6,0,12,3,,0.00,0,Fog,135
2013-2-10,48,38,28,45,32,21,90,75,63,30.18,29.87,29.61,10,9,3,20,12,29,0.08,7,Rain,146
2013-2-11,48,39,30,45,28,21,87,69,59,29.99,29.75,29.58,10,10,9,31,21,41,0.00,8,Rain,241
2013-2-12,33,30,28,23,21,20,75,70,64,30.11,30.04,29.96,10,10,8,17,12,17,0.00,7,,268
2013-2-13,44,32,21,28,24,18,89,73,51,29.95,29.83,29.74,10,7,2,10,4,,0.00,2,,214
2013-2-14,39,36,33,34,29,20,85,74,56,29.96,29.79,29.71,10,8,6,25,12,30,0.00,8,,229
2013-2-15,30,26,21,23,19,14,80,70,52,30.18,30.08,29.95,10,9,2,17,9,18,0.00,7,Snow,320
2013-2-16,24,18,12,18,13,6,86,74,57,30.15,30.09,30.04,10,7,0,21,10,26,0.00,7,Snow,291
2013-2-17,28,21,14,13,11,9,86,71,45,30.25,30.17,30.10,10,8,1,10,6,,0.00,5,Snow,237
2013-2-18,54,39,24,40,29,12,82,63,49,30.16,29.81,29.50,10,10,7,25,14,39,0.08,4,Rain,165
2013-2-19,45,30,15,40,14,8,93,76,68,30.09,29.80,29.46,10,4,0,30,23,39,0.03,8,Fog-Rain-Snow,254
2013-2-20,23,19,15,16,13,9,86,79,68,30.33,30.20,30.05,10,4,2,21,14,25,0.00,8,Snow,281
2013-2-21,27,24,21,18,16,14,75,72,69,30.38,30.29,30.09,10,10,10,22,10,29,0.00,8,,61
2013-2-22,34,28,21,32,24,15,93,85,72,30.08,29.91,29.84,10,4,0,22,16,33,0.15,8,Fog-Rain-Snow,146
2013-2-23,30,28,26,21,19,16,80,70,59,29.99,29.94,29.89,10,9,6,16,12,,0.00,8,,246
2013-2-24,35,29,23,22,20,17,85,72,59,30.18,30.09,29.97,10,8,4,14,8,,0.00,3,,252
2013-2-25,41,29,17,28,22,15,93,75,57,30.22,30.15,30.03,10,7,2,13,3,,0.00,0,,89
2013-2-26,35,32,30,32,29,23,96,82,64,30.01,29.59,29.44,10,4,1,21,14,36,0.56,7,Rain-Snow,64
2013-2-27,34,33,32,32,31,30,96,89,87,29.62,29.53,29.44,6,2,0,13,6,,0.12,8,Fog-Snow,235
2013-2-28,37,34,32,32,30,28,96,84,70,29.99,29.79,29.58,10,8,0,15,10,,0.00,8,Fog,323